createdAt,value
2019-02-18T00:00:35.079Z,25.03
2019-02-18T00:01:44.281Z,20.77
2019-02-18T00:02:52.541Z,22.97
2019-02-18T00:04:01.395Z,27.27
2019-02-18T00:05:10.161Z,22.93
2019-02-18T00:06:18.371Z,22.47
2019-02-18T00:07:26.586Z,22.30
2019-02-18T00:08:35.331Z,23.17
2019-02-18T00:09:44.184Z,22.40
2019-02-18T00:10:52.565Z,22.10
2019-02-18T00:12:01.098Z,23.70
2019-02-18T00:13:09.242Z,21.97
2019-02-18T00:14:17.498Z,21.93
2019-02-18T00:15:26.620Z,21.50
2019-02-18T00:16:34.802Z,21.57
2019-02-18T00:17:43.264Z,22.60
2019-02-18T00:18:51.949Z,21.10
2019-02-18T00:20:00.096Z,19.90
2019-02-18T00:21:08.586Z,22.17
2019-02-18T00:22:16.721Z,22.83
2019-02-18T00:23:24.747Z,20.40
2019-02-18T00:24:32.819Z,24.03
2019-02-18T00:25:41.288Z,23.13
2019-02-18T00:26:49.518Z,24.60
2019-02-18T00:27:58.081Z,21.47
2019-02-18T00:29:06.332Z,21.27
2019-02-18T00:30:15.435Z,20.53
2019-02-18T00:31:24.165Z,22.67
2019-02-18T00:32:32.450Z,22.87
2019-02-18T00:33:41.007Z,21.33
2019-02-18T00:34:49.482Z,18.63
2019-02-18T00:35:57.635Z,24.53
2019-02-18T00:37:06.371Z,21.87
2019-02-18T00:38:14.442Z,19.47
2019-02-18T00:39:22.933Z,20.17
2019-02-18T00:40:31.417Z,20.43
2019-02-18T00:41:39.765Z,21.53
2019-02-18T00:42:47.929Z,16.13
2019-02-18T00:43:56.076Z,22.33
2019-02-18T00:45:05.404Z,18.77
2019-02-18T00:46:13.626Z,20.53
2019-02-18T00:47:22.232Z,18.20
2019-02-18T00:48:30.613Z,21.07
2019-02-18T00:49:38.784Z,19.57
2019-02-18T00:50:47.080Z,22.83
2019-02-18T00:51:55.336Z,20.67
2019-02-18T00:53:04.182Z,18.93
2019-02-18T00:54:12.589Z,24.00
2019-02-18T00:55:20.843Z,21.47
2019-02-18T00:56:29.266Z,20.93
2019-02-18T00:57:37.549Z,20.83
2019-02-18T00:58:45.946Z,19.90
2019-02-18T00:59:54.247Z,20.60
2019-02-18T01:01:02.474Z,22.07
2019-02-18T01:02:10.731Z,23.50
2019-02-18T01:03:19.323Z,18.03
2019-02-18T01:04:27.786Z,17.43
2019-02-18T01:05:35.992Z,19.43
2019-02-18T01:06:44.386Z,17.30
2019-02-18T01:07:52.598Z,17.03
2019-02-18T01:09:00.913Z,22.10
2019-02-18T01:10:12.429Z,19.20
2019-02-18T01:11:20.834Z,18.87
2019-02-18T01:12:29.569Z,19.87
2019-02-18T01:13:37.923Z,20.50
2019-02-18T01:14:46.343Z,17.33
2019-02-18T01:15:54.882Z,19.87
2019-02-18T01:17:03.136Z,19.77
2019-02-18T01:18:11.949Z,20.33
2019-02-18T01:19:20.166Z,18.33
2019-02-18T01:20:28.491Z,18.60
2019-02-18T01:21:36.510Z,17.90
2019-02-18T01:22:44.850Z,19.87
2019-02-18T01:23:53.050Z,21.77
2019-02-18T01:25:01.292Z,18.97
2019-02-18T01:26:09.796Z,16.37
2019-02-18T01:27:18.208Z,17.17
2019-02-18T01:28:26.817Z,18.80
2019-02-18T01:29:35.047Z,16.33
2019-02-18T01:30:43.368Z,16.97
2019-02-18T01:31:51.511Z,20.17
2019-02-18T01:32:59.766Z,17.70
2019-02-18T01:34:07.924Z,18.37
2019-02-18T01:35:16.733Z,20.77
2019-02-18T01:36:24.903Z,18.83
2019-02-18T01:37:33.377Z,19.73
2019-02-18T01:38:41.644Z,18.50
2019-02-18T01:39:49.962Z,16.33
2019-02-18T01:40:58.344Z,18.93
2019-02-18T01:42:06.718Z,17.33
2019-02-18T01:43:14.734Z,19.60
2019-02-18T01:44:22.969Z,19.43
2019-02-18T01:45:31.332Z,20.33
2019-02-18T01:46:39.563Z,19.03
2019-02-18T01:47:47.688Z,17.03
2019-02-18T01:48:55.921Z,19.13
2019-02-18T01:50:05.467Z,20.23
2019-02-18T01:51:13.623Z,17.83
2019-02-18T01:52:21.851Z,20.23
2019-02-18T01:53:30.539Z,17.73
2019-02-18T01:54:38.865Z,21.37
2019-02-18T01:55:46.881Z,22.00
2019-02-18T01:56:55.557Z,17.53
2019-02-18T01:58:03.545Z,17.97
2019-02-18T01:59:12.168Z,19.17
2019-02-18T02:00:20.336Z,20.90
2019-02-18T02:01:28.777Z,19.40
2019-02-18T02:02:36.712Z,22.43
2019-02-18T02:03:45.069Z,19.10
2019-02-18T02:04:53.425Z,20.30
2019-02-18T02:06:01.676Z,17.03
2019-02-18T02:07:10.096Z,15.00
2019-02-18T02:08:18.457Z,20.27
2019-02-18T02:09:26.719Z,17.63
2019-02-18T02:10:34.859Z,19.27
2019-02-18T02:11:43.214Z,18.60
2019-02-18T02:12:51.367Z,21.73
2019-02-18T02:13:59.629Z,21.70
2019-02-18T02:15:21.131Z,20.00
2019-02-18T02:16:29.433Z,20.03
2019-02-18T02:17:37.680Z,18.73
2019-02-18T02:18:46.300Z,22.27
2019-02-18T02:19:54.128Z,19.20
2019-02-18T02:21:02.783Z,15.60
2019-02-18T02:22:10.967Z,20.97
2019-02-18T02:23:19.339Z,20.67
2019-02-18T02:24:27.437Z,19.47
2019-02-18T02:25:36.113Z,21.63
2019-02-18T02:26:44.307Z,18.00
2019-02-18T02:27:52.455Z,25.43
2019-02-18T02:29:00.646Z,22.73
2019-02-18T02:30:11.505Z,18.37
2019-02-18T02:31:19.728Z,17.93
2019-02-18T02:32:28.108Z,23.47
2019-02-18T02:33:36.433Z,19.33
2019-02-18T02:34:44.824Z,17.87
2019-02-18T02:35:53.178Z,20.50
2019-02-18T02:37:01.589Z,20.87
2019-02-18T02:38:09.848Z,21.73
2019-02-18T02:39:18.345Z,22.10
2019-02-18T02:40:26.533Z,20.93
2019-02-18T02:41:34.960Z,18.27
2019-02-18T02:42:43.055Z,19.63
2019-02-18T02:43:51.392Z,18.73
2019-02-18T02:44:59.835Z,18.40
2019-02-18T02:46:08.443Z,19.87
2019-02-18T02:47:16.566Z,18.83
2019-02-18T02:48:25.022Z,20.13
2019-02-18T02:49:33.455Z,18.27
2019-02-18T02:50:41.562Z,20.43
2019-02-18T02:51:49.952Z,15.67
2019-02-18T02:52:58.666Z,16.83
2019-02-18T02:54:06.770Z,14.30
2019-02-18T02:55:15.487Z,14.93
2019-02-18T02:56:24.081Z,13.57
2019-02-18T02:57:33.136Z,14.00
2019-02-18T02:58:41.668Z,16.10
2019-02-18T02:59:50.170Z,16.83
2019-02-18T03:00:58.407Z,14.63
2019-02-18T03:02:06.756Z,15.00
2019-02-18T03:03:15.217Z,17.77
2019-02-18T03:04:23.513Z,16.47
2019-02-18T03:05:32.045Z,16.57
2019-02-18T03:06:40.230Z,18.67
2019-02-18T03:07:48.847Z,18.40
2019-02-18T03:08:56.926Z,13.73
2019-02-18T03:10:09.597Z,13.83
2019-02-18T03:11:18.251Z,16.63
2019-02-18T03:12:26.987Z,13.77
2019-02-18T03:13:35.544Z,15.47
2019-02-18T03:14:44.521Z,18.20
2019-02-18T03:15:53.779Z,18.27
2019-02-18T03:17:02.223Z,15.07
2019-02-18T03:18:10.335Z,17.60
2019-02-18T03:19:19.015Z,17.17
2019-02-18T03:20:27.825Z,17.33
2019-02-18T03:21:35.991Z,19.73
2019-02-18T03:22:44.252Z,17.27
2019-02-18T03:23:52.983Z,16.13
2019-02-18T03:25:19.500Z,17.73
2019-02-18T03:26:28.490Z,18.17
2019-02-18T03:27:36.787Z,20.20
2019-02-18T03:29:13.757Z,19.77
2019-02-18T03:30:39.017Z,20.00
2019-02-18T03:31:47.393Z,20.83
2019-02-18T03:32:55.887Z,17.03
2019-02-18T03:34:11.950Z,21.87
2019-02-18T03:35:20.461Z,17.87
2019-02-18T03:36:28.805Z,17.77
2019-02-18T03:37:37.085Z,19.13
2019-02-18T03:38:45.707Z,16.70
2019-02-18T03:39:54.171Z,18.27
2019-02-18T03:41:03.648Z,20.30
2019-02-18T03:42:12.369Z,22.13
2019-02-18T03:43:20.930Z,17.57
2019-02-18T03:44:29.074Z,16.43
2019-02-18T03:45:37.210Z,19.93
2019-02-18T03:46:45.619Z,18.90
2019-02-18T03:47:54.189Z,22.13
2019-02-18T03:49:02.333Z,20.97
2019-02-18T03:50:10.794Z,21.83
2019-02-18T03:51:19.450Z,20.67
2019-02-18T03:52:27.821Z,22.67
2019-02-18T03:53:36.363Z,18.37
2019-02-18T03:54:44.953Z,22.17
2019-02-18T03:55:53.492Z,21.70
2019-02-18T03:57:02.178Z,19.17
2019-02-18T03:58:10.328Z,19.00
2019-02-18T03:59:18.632Z,20.53
2019-02-18T04:00:26.759Z,20.47
2019-02-18T04:01:35.245Z,17.40
2019-02-18T04:02:43.603Z,20.03
2019-02-18T04:03:52.013Z,18.60
2019-02-18T04:05:00.403Z,16.93
2019-02-18T04:06:08.386Z,19.13
2019-02-18T04:07:16.582Z,17.50
2019-02-18T04:08:25.103Z,18.37
2019-02-18T04:09:33.299Z,18.07
2019-02-18T04:10:41.724Z,18.43
2019-02-18T04:11:49.774Z,19.23
2019-02-18T04:12:58.489Z,16.97
2019-02-18T04:14:06.641Z,15.90
2019-02-18T04:15:17.585Z,16.80
2019-02-18T04:16:25.874Z,17.63
2019-02-18T04:17:34.311Z,17.10
2019-02-18T04:18:42.819Z,19.23
2019-02-18T04:19:52.353Z,18.40
2019-02-18T04:21:01.262Z,15.13
2019-02-18T04:22:09.426Z,17.00
2019-02-18T04:23:17.402Z,15.20
2019-02-18T04:24:25.701Z,18.53
2019-02-18T04:25:33.992Z,19.20
2019-02-18T04:26:42.051Z,16.80
2019-02-18T04:27:50.351Z,20.47
2019-02-18T04:28:58.614Z,15.90
2019-02-18T04:30:10.511Z,20.23
2019-02-18T04:31:19.016Z,19.03
2019-02-18T04:32:27.601Z,19.17
2019-02-18T04:33:36.233Z,18.57
2019-02-18T04:34:44.468Z,17.83
2019-02-18T04:35:53.404Z,17.97
2019-02-18T04:37:01.859Z,19.73
2019-02-18T04:38:10.273Z,20.47
2019-02-18T04:39:18.938Z,18.17
2019-02-18T04:40:27.747Z,19.37
2019-02-18T04:41:35.974Z,18.07
2019-02-18T04:42:46.244Z,19.17
2019-02-18T04:43:54.518Z,18.17
2019-02-18T04:45:03.021Z,20.00
2019-02-18T04:46:12.114Z,18.47
2019-02-18T04:47:20.513Z,21.70
2019-02-18T04:48:29.401Z,22.17
2019-02-18T04:49:38.774Z,22.13
2019-02-18T04:50:47.457Z,21.40
2019-02-18T04:51:56.240Z,20.80
2019-02-18T04:53:04.359Z,19.57
2019-02-18T04:54:12.749Z,23.23
2019-02-18T04:55:21.605Z,20.27
2019-02-18T04:56:29.867Z,22.37
2019-02-18T04:57:38.821Z,19.47
2019-02-18T04:58:47.375Z,19.70
2019-02-18T04:59:56.525Z,20.60
2019-02-18T05:01:04.628Z,20.40
2019-02-18T05:02:12.808Z,20.83
2019-02-18T05:03:20.896Z,19.97
2019-02-18T05:04:29.042Z,21.77
2019-02-18T05:05:37.564Z,20.87
2019-02-18T05:06:45.716Z,19.63
2019-02-18T05:07:54.774Z,20.73
2019-02-18T05:09:05.669Z,21.87
2019-02-18T05:10:14.169Z,18.57
2019-02-18T05:11:22.874Z,20.97
2019-02-18T05:12:31.055Z,20.23
2019-02-18T05:13:39.510Z,18.83
2019-02-18T05:14:47.601Z,15.50
2019-02-18T05:15:56.356Z,19.97
2019-02-18T05:17:05.117Z,20.30
2019-02-18T05:18:13.945Z,20.77
2019-02-18T05:19:23.088Z,20.37
2019-02-18T05:20:31.526Z,19.27
2019-02-18T05:21:40.109Z,20.47
2019-02-18T05:22:48.535Z,16.47
2019-02-18T05:23:56.928Z,17.07
2019-02-18T05:25:10.100Z,22.43
2019-02-18T05:26:18.522Z,19.43
2019-02-18T05:27:33.275Z,19.83
2019-02-18T05:28:37.843Z,19.40
2019-02-18T05:29:46.561Z,21.30
2019-02-18T05:30:54.739Z,17.77
2019-02-18T05:32:03.878Z,21.43
2019-02-18T05:33:12.579Z,20.07
2019-02-18T05:34:20.952Z,20.33
2019-02-18T05:35:29.578Z,17.63
2019-02-18T05:36:38.068Z,18.23
2019-02-18T05:37:46.363Z,16.37
2019-02-18T05:38:54.865Z,23.03
2019-02-18T05:40:03.547Z,18.13
2019-02-18T05:41:12.162Z,23.50
2019-02-18T05:42:21.142Z,21.97
2019-02-18T05:43:29.961Z,17.83
2019-02-18T05:44:39.704Z,21.13
2019-02-18T05:45:48.855Z,19.67
2019-02-18T05:46:57.800Z,19.03
2019-02-18T05:48:06.675Z,22.07
2019-02-18T05:49:15.806Z,18.33
2019-02-18T05:50:25.168Z,18.60
2019-02-18T05:51:33.290Z,21.50
2019-02-18T05:52:42.385Z,19.03
2019-02-18T05:53:51.398Z,18.60
2019-02-18T05:54:59.881Z,19.63
2019-02-18T05:56:08.622Z,18.13
2019-02-18T05:57:18.130Z,19.57
2019-02-18T05:58:27.780Z,19.77
2019-02-18T05:59:36.078Z,20.97
2019-02-18T06:00:44.992Z,21.60
2019-02-18T06:01:55.236Z,19.90
2019-02-18T06:03:05.007Z,18.93
2019-02-18T06:04:13.573Z,17.83
2019-02-18T06:05:21.667Z,17.33
2019-02-18T06:06:30.377Z,19.03
2019-02-18T06:07:38.927Z,18.57
2019-02-18T06:08:48.350Z,16.20
2019-02-18T06:09:56.717Z,20.03
2019-02-18T06:11:07.106Z,19.20
2019-02-18T06:12:16.163Z,18.13
2019-02-18T06:13:25.270Z,19.90
2019-02-18T06:14:33.416Z,19.33
2019-02-18T06:15:41.776Z,21.80
2019-02-18T06:16:49.942Z,20.77
2019-02-18T06:18:00.532Z,19.97
2019-02-18T06:19:09.467Z,20.73
2019-02-18T06:20:18.051Z,19.23
2019-02-18T06:21:27.006Z,22.97
2019-02-18T06:22:38.451Z,18.77
2019-02-18T06:23:46.569Z,21.77
2019-02-18T06:24:55.417Z,19.20
2019-02-18T06:26:04.025Z,21.40
2019-02-18T06:27:13.522Z,21.23
2019-02-18T06:28:21.914Z,17.67
2019-02-18T06:29:30.456Z,19.43
2019-02-18T06:30:39.760Z,18.37
2019-02-18T06:31:48.562Z,18.87
2019-02-18T06:32:57.271Z,20.93
2019-02-18T06:34:05.798Z,22.07
2019-02-18T06:35:14.352Z,17.90
2019-02-18T06:36:23.906Z,18.33
2019-02-18T06:37:32.435Z,19.93
2019-02-18T06:38:41.455Z,20.57
2019-02-18T06:39:49.922Z,21.03
2019-02-18T06:40:58.804Z,20.97
2019-02-18T06:42:07.185Z,22.20
2019-02-18T06:43:15.987Z,20.73
2019-02-18T06:44:26.083Z,22.63
2019-02-18T06:45:52.264Z,20.87
2019-02-18T06:47:02.204Z,20.90
2019-02-18T06:48:12.818Z,19.03
2019-02-18T06:49:21.148Z,19.80
2019-02-18T06:50:29.731Z,20.97
2019-02-18T06:51:38.248Z,19.90
2019-02-18T06:52:47.516Z,21.33
2019-02-18T06:53:55.836Z,22.70
2019-02-18T06:55:05.271Z,25.00
2019-02-18T06:56:13.861Z,23.83
2019-02-18T06:57:26.257Z,24.03
2019-02-18T06:58:40.135Z,24.60
2019-02-18T06:59:50.753Z,24.23
2019-02-18T07:01:01.396Z,25.17
2019-02-18T07:02:14.518Z,26.33
2019-02-18T07:03:23.259Z,23.47
2019-02-18T07:04:49.194Z,26.60
2019-02-18T07:06:02.238Z,27.70
2019-02-18T07:07:15.720Z,25.63
2019-02-18T07:08:24.328Z,21.53
2019-02-18T07:09:38.875Z,21.73
2019-02-18T07:10:48.853Z,24.30
2019-02-18T07:11:59.518Z,23.57
2019-02-18T07:13:08.151Z,22.40
2019-02-18T07:14:17.154Z,21.73
2019-02-18T07:15:25.649Z,22.27
2019-02-18T07:16:34.125Z,22.17
2019-02-18T07:17:42.829Z,21.30
2019-02-18T07:18:51.883Z,18.40
2019-02-18T07:20:01.134Z,21.77
2019-02-18T07:21:10.382Z,22.57
2019-02-18T07:22:18.966Z,22.13
2019-02-18T07:23:28.046Z,21.10
2019-02-18T07:24:36.883Z,23.20
2019-02-18T07:25:45.993Z,21.23
2019-02-18T07:26:54.647Z,23.70
2019-02-18T07:28:03.112Z,21.57
2019-02-18T07:29:12.540Z,20.03
2019-02-18T07:30:21.346Z,20.50
2019-02-18T07:31:30.013Z,19.07
2019-02-18T07:32:38.649Z,19.53
2019-02-18T07:33:47.180Z,21.00
2019-02-18T07:34:55.433Z,22.07
2019-02-18T07:36:04.065Z,21.50
2019-02-18T07:37:12.663Z,22.90
2019-02-18T07:38:21.545Z,21.80
2019-02-18T07:39:30.281Z,22.30
2019-02-18T07:40:39.163Z,19.80
2019-02-18T07:41:48.112Z,21.20
2019-02-18T07:42:56.514Z,19.17
2019-02-18T07:44:05.329Z,21.63
2019-02-18T07:45:13.941Z,21.37
2019-02-18T07:46:22.887Z,22.20
2019-02-18T07:47:31.663Z,24.73
2019-02-18T07:48:40.631Z,25.63
2019-02-18T07:49:49.531Z,17.60
2019-02-18T07:50:59.703Z,24.43
2019-02-18T07:52:08.267Z,22.87
2019-02-18T07:53:17.367Z,24.20
2019-02-18T07:54:25.815Z,27.43
2019-02-18T07:55:34.642Z,22.80
2019-02-18T07:56:43.348Z,25.03
2019-02-18T07:57:52.188Z,24.27
2019-02-18T07:59:01.080Z,25.60
2019-02-18T08:00:13.924Z,28.90
2019-02-18T08:01:22.908Z,22.70
2019-02-18T08:02:31.335Z,26.50
2019-02-18T08:03:39.868Z,25.23
2019-02-18T08:04:48.515Z,25.93
2019-02-18T08:05:56.983Z,26.80
2019-02-18T08:07:05.357Z,26.73
2019-02-18T08:08:13.678Z,25.33
2019-02-18T08:09:22.268Z,26.17
2019-02-18T08:10:30.619Z,22.07
2019-02-18T08:11:39.178Z,22.07
2019-02-18T08:12:47.852Z,21.93
2019-02-18T08:13:56.074Z,26.27
2019-02-18T08:15:04.138Z,28.40
2019-02-18T08:16:12.327Z,27.33
2019-02-18T08:17:20.299Z,25.65
2019-02-18T08:18:28.586Z,25.02
2019-02-18T08:19:36.562Z,25.20
2019-02-18T08:20:45.565Z,24.43
2019-02-18T08:21:53.771Z,24.43
2019-02-18T08:23:02.296Z,22.73
2019-02-18T08:24:10.913Z,24.50
2019-02-18T08:25:19.417Z,24.75
2019-02-18T08:26:27.693Z,23.95
2019-02-18T08:27:36.094Z,24.35
2019-02-18T08:28:44.496Z,27.77
2019-02-18T08:29:52.968Z,27.05
2019-02-18T08:31:01.326Z,24.45
2019-02-18T08:32:10.889Z,25.43
2019-02-18T08:33:19.686Z,22.77
2019-02-18T08:34:28.116Z,20.40
2019-02-18T08:35:36.686Z,25.32
2019-02-18T08:36:45.297Z,21.97
2019-02-18T08:37:53.790Z,19.98
2019-02-18T08:39:01.777Z,20.30
2019-02-18T08:40:20.006Z,20.82
2019-02-18T08:41:22.239Z,19.45
2019-02-18T08:42:30.545Z,19.95
2019-02-18T08:43:38.987Z,20.32
2019-02-18T08:44:47.061Z,19.45
2019-02-18T08:45:55.715Z,18.40
2019-02-18T08:47:04.188Z,18.02
2019-02-18T08:48:12.414Z,17.00
2019-02-18T08:49:21.300Z,17.75
2019-02-18T08:50:29.302Z,17.50
2019-02-18T08:51:37.700Z,17.55
2019-02-18T08:52:45.999Z,18.02
2019-02-18T08:53:54.447Z,19.40
2019-02-18T08:55:02.629Z,14.85
2019-02-18T08:56:11.324Z,17.70
2019-02-18T08:57:19.599Z,17.12
2019-02-18T08:58:29.520Z,16.15
2019-02-18T08:59:37.821Z,17.75
2019-02-18T09:00:46.366Z,16.55
2019-02-18T09:01:54.683Z,15.48
2019-02-18T09:03:02.776Z,15.55
2019-02-18T09:04:10.806Z,14.53
2019-02-18T09:05:19.263Z,15.85
2019-02-18T09:06:28.206Z,15.38
2019-02-18T09:07:40.201Z,16.67
2019-02-18T09:08:48.729Z,16.60
2019-02-18T09:09:57.347Z,18.70
2019-02-18T09:11:06.991Z,17.02
2019-02-18T09:12:17.076Z,16.87
2019-02-18T09:13:25.467Z,16.50
2019-02-18T09:14:33.609Z,16.10
2019-02-18T09:15:42.534Z,15.38
2019-02-18T09:16:50.831Z,14.20
2019-02-18T09:17:58.998Z,13.30
2019-02-18T09:19:07.907Z,14.10
2019-02-18T09:20:16.454Z,13.60
2019-02-18T09:21:25.770Z,13.62
2019-02-18T09:22:37.148Z,12.95
2019-02-18T09:23:47.048Z,11.50
2019-02-18T09:24:56.812Z,13.58
2019-02-18T09:26:05.178Z,13.45
2019-02-18T09:27:14.050Z,16.97
2019-02-18T09:28:22.819Z,14.38
2019-02-18T09:29:31.723Z,17.12
2019-02-18T09:30:41.528Z,16.85
2019-02-18T09:31:50.136Z,13.90
2019-02-18T09:32:59.097Z,14.98
2019-02-18T09:34:07.549Z,15.88
2019-02-18T09:35:16.217Z,16.73
2019-02-18T09:36:24.865Z,17.73
2019-02-18T09:37:33.026Z,16.15
2019-02-18T09:38:41.327Z,14.58
2019-02-18T09:39:49.614Z,15.55
2019-02-18T09:40:58.445Z,16.65
2019-02-18T09:42:06.965Z,14.00
2019-02-18T09:43:15.267Z,15.70
2019-02-18T09:44:23.473Z,13.93
2019-02-18T09:45:31.965Z,15.53
2019-02-18T09:46:40.505Z,15.10
2019-02-18T09:47:49.327Z,13.32
2019-02-18T09:48:57.776Z,15.30
2019-02-18T09:50:08.831Z,13.13
2019-02-18T09:51:17.284Z,13.70
2019-02-18T09:52:25.558Z,13.95
2019-02-18T09:53:34.184Z,12.25
2019-02-18T09:54:42.943Z,11.25
2019-02-18T09:55:51.770Z,12.03
2019-02-18T09:57:00.013Z,10.68
2019-02-18T09:58:08.529Z,7.87
2019-02-18T09:59:17.312Z,9.43
2019-02-18T10:00:25.790Z,9.38
2019-02-18T10:01:33.935Z,9.23
2019-02-18T10:02:42.317Z,10.75
2019-02-18T10:03:50.545Z,11.95
2019-02-18T10:04:58.746Z,11.03
2019-02-18T10:06:07.313Z,11.43
2019-02-18T10:07:15.826Z,11.60
2019-02-18T10:08:24.670Z,10.95
2019-02-18T10:09:33.336Z,12.47
2019-02-18T10:10:41.496Z,15.18
2019-02-18T10:11:49.883Z,14.78
2019-02-18T10:12:59.721Z,13.40
2019-02-18T10:14:08.460Z,14.25
2019-02-18T10:15:17.142Z,14.43
2019-02-18T10:16:25.857Z,13.10
2019-02-18T10:17:34.123Z,14.90
2019-02-18T10:18:42.380Z,14.30
2019-02-18T10:19:50.912Z,16.15
2019-02-18T10:20:59.728Z,15.25
2019-02-18T10:22:08.073Z,16.02
2019-02-18T10:23:16.176Z,16.32
2019-02-18T10:24:24.689Z,14.80
2019-02-18T10:25:33.126Z,12.93
2019-02-18T10:26:41.517Z,12.65
2019-02-18T10:27:49.904Z,14.68
2019-02-18T10:28:58.178Z,15.03
2019-02-18T10:30:09.317Z,13.25
2019-02-18T10:31:17.662Z,13.10
2019-02-18T10:32:26.076Z,13.65
2019-02-18T10:33:34.265Z,12.53
2019-02-18T10:34:42.617Z,13.15
2019-02-18T10:35:52.007Z,10.28
2019-02-18T10:37:00.545Z,11.78
2019-02-18T10:38:09.055Z,13.70
2019-02-18T10:39:18.020Z,13.53
2019-02-18T10:40:26.289Z,11.22
2019-02-18T10:41:35.177Z,10.82
2019-02-18T10:42:43.446Z,11.50
2019-02-18T10:43:51.549Z,11.55
2019-02-18T10:45:00.396Z,10.60
2019-02-18T10:46:08.590Z,9.40
2019-02-18T10:47:16.700Z,9.80
2019-02-18T10:48:25.212Z,11.50
2019-02-18T10:49:33.695Z,11.88
2019-02-18T10:50:42.308Z,10.48
2019-02-18T10:51:51.077Z,12.78
2019-02-18T10:52:59.107Z,11.75
2019-02-18T10:54:07.269Z,12.43
2019-02-18T10:55:15.883Z,10.32
2019-02-18T10:56:25.008Z,10.40
2019-02-18T10:57:33.814Z,10.35
2019-02-18T10:58:41.877Z,10.03
2019-02-18T10:59:49.742Z,11.78
2019-02-18T11:00:58.103Z,9.63
2019-02-18T11:02:06.267Z,10.78
2019-02-18T11:03:14.808Z,11.80
2019-02-18T11:04:23.212Z,10.72
2019-02-18T11:05:32.092Z,14.98
2019-02-18T11:06:40.538Z,11.20
2019-02-18T11:07:48.833Z,10.43
2019-02-18T11:08:57.073Z,7.83
2019-02-18T11:10:14.762Z,13.62
2019-02-18T11:11:23.265Z,11.53
2019-02-18T11:12:31.613Z,12.43
2019-02-18T11:13:40.087Z,11.73
2019-02-18T11:14:48.678Z,10.35
2019-02-18T11:15:56.843Z,7.90
2019-02-18T11:17:05.023Z,9.78
2019-02-18T11:18:13.273Z,10.05
2019-02-18T11:19:21.830Z,9.73
2019-02-18T11:20:29.844Z,9.65
2019-02-18T11:21:37.972Z,8.75
2019-02-18T11:22:46.029Z,9.85
2019-02-18T11:23:54.804Z,9.05
2019-02-18T11:25:02.883Z,8.13
2019-02-18T11:26:11.124Z,10.08
2019-02-18T11:27:19.627Z,9.33
2019-02-18T11:28:28.087Z,8.03
2019-02-18T11:29:37.075Z,10.20
2019-02-18T11:30:45.408Z,8.78
2019-02-18T11:31:54.129Z,10.65
2019-02-18T11:33:02.641Z,9.00
2019-02-18T11:34:11.085Z,9.75
2019-02-18T11:35:19.653Z,8.45
2019-02-18T11:36:28.023Z,8.65
2019-02-18T11:37:36.396Z,10.08
2019-02-18T11:38:44.713Z,10.30
2019-02-18T11:39:53.267Z,8.90
2019-02-18T11:41:02.044Z,9.35
2019-02-18T11:42:10.307Z,8.85
2019-02-18T11:43:18.460Z,8.55
2019-02-18T11:44:27.219Z,8.05
2019-02-18T11:45:35.463Z,9.03
2019-02-18T11:46:44.341Z,9.58
2019-02-18T11:47:52.820Z,10.43
2019-02-18T11:49:01.116Z,10.05
2019-02-18T11:50:13.054Z,8.65
2019-02-18T11:51:21.774Z,9.65
2019-02-18T11:52:30.944Z,9.53
2019-02-18T11:53:39.538Z,8.20
2019-02-18T11:54:48.058Z,8.83
2019-02-18T11:55:57.541Z,8.23
2019-02-18T11:57:06.234Z,8.35
2019-02-18T11:58:14.942Z,9.80
2019-02-18T11:59:24.565Z,9.48
2019-02-18T12:00:32.667Z,8.98
2019-02-18T12:01:40.767Z,8.80
2019-02-18T12:02:49.286Z,6.20
2019-02-18T12:03:58.244Z,9.40
2019-02-18T12:05:09.151Z,9.18
2019-02-18T12:06:17.456Z,9.35
2019-02-18T12:07:26.117Z,8.45
2019-02-18T12:08:34.799Z,8.93
2019-02-18T12:09:43.686Z,9.88
2019-02-18T12:10:52.201Z,9.48
2019-02-18T12:12:00.721Z,10.30
2019-02-18T12:13:09.525Z,8.28
2019-02-18T12:14:17.595Z,8.68
2019-02-18T12:15:26.176Z,7.58
2019-02-18T12:16:34.699Z,9.35
2019-02-18T12:17:43.302Z,9.98
2019-02-18T12:18:52.261Z,8.85
2019-02-18T12:20:00.729Z,8.78
2019-02-18T12:21:09.225Z,9.70
2019-02-18T12:22:17.820Z,9.08
2019-02-18T12:23:26.074Z,8.23
2019-02-18T12:24:34.476Z,9.05
2019-02-18T12:25:42.868Z,8.00
2019-02-18T12:26:51.421Z,7.25
2019-02-18T12:28:00.262Z,6.72
2019-02-18T12:29:09.051Z,7.25
2019-02-18T12:30:19.610Z,7.47
2019-02-18T12:31:28.438Z,8.50
2019-02-18T12:32:37.400Z,6.95
2019-02-18T12:33:45.649Z,6.80
2019-02-18T12:34:54.067Z,7.72
2019-02-18T12:36:02.446Z,7.20
2019-02-18T12:37:11.073Z,8.03
2019-02-18T12:38:19.826Z,6.97
2019-02-18T12:39:28.480Z,6.67
2019-02-18T12:40:36.765Z,6.53
2019-02-18T12:41:48.691Z,6.90
2019-02-18T12:42:55.435Z,7.53
2019-02-18T12:44:03.928Z,6.30
2019-02-18T12:45:13.874Z,5.12
2019-02-18T12:46:22.303Z,5.33
2019-02-18T12:47:30.606Z,6.12
2019-02-18T12:48:39.257Z,6.42
2019-02-18T12:49:47.661Z,7.10
2019-02-18T12:50:56.020Z,5.70
2019-02-18T12:52:04.522Z,6.30
2019-02-18T12:53:12.972Z,5.47
2019-02-18T12:54:21.973Z,4.83
2019-02-18T12:55:30.452Z,4.97
2019-02-18T12:56:38.912Z,5.12
2019-02-18T12:57:47.484Z,5.53
2019-02-18T12:58:57.024Z,4.58
2019-02-18T13:00:10.056Z,4.17
2019-02-18T13:01:18.536Z,3.65
2019-02-18T13:02:26.956Z,5.12
2019-02-18T13:03:35.366Z,4.17
2019-02-18T13:04:43.792Z,3.40
2019-02-18T13:05:52.341Z,4.65
2019-02-18T13:07:00.287Z,3.95
2019-02-18T13:08:08.846Z,3.85
2019-02-18T13:09:17.047Z,4.50
2019-02-18T13:10:34.678Z,4.65
2019-02-18T13:11:35.799Z,5.00
2019-02-18T13:12:43.973Z,4.05
2019-02-18T13:13:52.615Z,4.50
2019-02-18T13:15:01.139Z,4.03
2019-02-18T13:16:09.356Z,4.28
2019-02-18T13:17:17.986Z,5.22
2019-02-18T13:18:26.526Z,4.85
2019-02-18T13:19:35.038Z,4.78
2019-02-18T13:20:43.379Z,4.83
2019-02-18T13:21:52.216Z,4.17
2019-02-18T13:23:01.206Z,4.40
2019-02-18T13:24:10.098Z,3.60
2019-02-18T13:25:18.590Z,4.25
2019-02-18T13:26:34.025Z,5.60
2019-02-18T13:27:42.225Z,4.12
2019-02-18T13:28:50.973Z,4.40
2019-02-18T13:29:59.235Z,4.72
2019-02-18T13:31:08.466Z,4.92
2019-02-18T13:32:16.979Z,4.67
2019-02-18T13:33:25.454Z,5.05
2019-02-18T13:34:33.715Z,5.42
2019-02-18T13:35:42.316Z,5.17
2019-02-18T13:36:51.150Z,4.45
2019-02-18T13:37:59.990Z,4.50
2019-02-18T13:39:09.574Z,5.03
2019-02-18T13:40:18.537Z,4.72
2019-02-18T13:41:27.624Z,4.28
2019-02-18T13:42:36.131Z,4.95
2019-02-18T13:43:45.061Z,4.92
2019-02-18T13:44:53.807Z,4.75
2019-02-18T13:46:02.618Z,4.08
2019-02-18T13:47:11.679Z,4.00
2019-02-18T13:48:19.991Z,3.50
2019-02-18T13:49:28.833Z,4.62
2019-02-18T13:50:38.491Z,3.33
2019-02-18T13:51:56.220Z,4.10
2019-02-18T13:52:58.019Z,3.72
2019-02-18T13:54:06.346Z,3.40
2019-02-18T13:55:15.771Z,4.03
2019-02-18T13:56:24.542Z,3.95
2019-02-18T13:57:33.112Z,4.78
2019-02-18T13:58:42.067Z,4.15
2019-02-18T13:59:50.242Z,5.40
2019-02-18T14:00:59.391Z,4.50
2019-02-18T14:02:08.521Z,4.65
2019-02-18T14:03:17.343Z,3.60
2019-02-18T14:04:26.043Z,3.17
2019-02-18T14:05:34.866Z,4.55
2019-02-18T14:06:44.045Z,3.40
2019-02-18T14:07:53.310Z,3.45
2019-02-18T14:09:02.037Z,4.05
2019-02-18T14:10:10.749Z,3.15
2019-02-18T14:11:19.964Z,3.62
2019-02-18T14:12:28.219Z,3.17
2019-02-18T14:13:36.767Z,4.35
2019-02-18T14:14:45.725Z,3.95
2019-02-18T14:15:54.768Z,3.35
2019-02-18T14:17:03.628Z,4.03
2019-02-18T14:18:12.371Z,4.92
2019-02-18T14:19:21.398Z,4.25
2019-02-18T14:20:30.224Z,3.05
2019-02-18T14:21:39.388Z,3.60
2019-02-18T14:22:48.405Z,3.67
2019-02-18T14:23:56.805Z,4.67
2019-02-18T14:25:07.754Z,4.22
2019-02-18T14:26:16.696Z,3.98
2019-02-18T14:27:25.139Z,3.10
2019-02-18T14:28:33.700Z,3.08
2019-02-18T14:29:43.244Z,4.10
2019-02-18T14:30:52.183Z,3.58
2019-02-18T14:32:00.763Z,3.37
2019-02-18T14:33:09.256Z,3.47
2019-02-18T14:34:17.859Z,3.90
2019-02-18T14:35:26.261Z,3.17
2019-02-18T14:36:35.505Z,2.98
2019-02-18T14:37:43.944Z,3.70
2019-02-18T14:38:52.658Z,3.98
2019-02-18T14:40:01.198Z,4.25
2019-02-18T14:41:10.533Z,4.15
2019-02-18T14:42:24.521Z,4.60
2019-02-18T14:43:29.304Z,4.75
2019-02-18T14:44:38.098Z,5.10
2019-02-18T14:45:46.966Z,4.70
2019-02-18T14:46:55.035Z,5.65
2019-02-18T14:48:04.332Z,5.12
2019-02-18T14:49:13.510Z,6.15
2019-02-18T14:50:22.448Z,3.98
2019-02-18T14:51:31.197Z,4.08
2019-02-18T14:52:39.754Z,4.83
2019-02-18T14:53:48.372Z,4.35